createdAt,value
2018-10-06T00:00:06.938Z,93.82
2018-10-06T00:02:36.546Z,93.93
2018-10-06T00:05:05.770Z,93.79
2018-10-06T00:07:34.348Z,93.81
2018-10-06T00:10:03.007Z,93.93
2018-10-06T00:12:31.516Z,94.08
2018-10-06T00:15:00.121Z,94.09
2018-10-06T00:17:28.798Z,94.05
2018-10-06T00:19:59.078Z,94.14
2018-10-06T00:22:28.546Z,93.90
2018-10-06T00:24:57.074Z,94.24
2018-10-06T00:27:27.446Z,93.97
2018-10-06T00:29:56.502Z,93.91
2018-10-06T00:32:25.496Z,93.81
2018-10-06T00:34:54.014Z,93.87
2018-10-06T00:37:22.678Z,94.13
2018-10-06T00:39:51.286Z,94.15
2018-10-06T00:42:19.934Z,94.44
2018-10-06T00:44:48.568Z,94.64
2018-10-06T00:47:17.155Z,94.22
2018-10-06T00:49:45.974Z,94.46
2018-10-06T00:52:14.541Z,94.36
2018-10-06T00:54:43.268Z,94.91
2018-10-06T00:57:11.814Z,94.51
2018-10-06T00:59:40.398Z,94.71
2018-10-06T01:02:09.037Z,94.71
2018-10-06T01:04:37.527Z,94.63
2018-10-06T01:07:06.382Z,94.57
2018-10-06T01:09:34.863Z,94.58
2018-10-06T01:12:03.659Z,94.33
2018-10-06T01:14:32.227Z,94.25
2018-10-06T01:17:00.855Z,94.03
2018-10-06T01:19:29.370Z,94.21
2018-10-06T01:21:57.950Z,94.11
2018-10-06T01:24:26.640Z,94.47
2018-10-06T01:26:55.186Z,94.22
2018-10-06T01:29:24.065Z,94.28
2018-10-06T01:31:52.538Z,94.34
2018-10-06T01:34:21.274Z,94.31
2018-10-06T01:36:49.978Z,93.89
2018-10-06T01:39:18.742Z,93.83
2018-10-06T01:41:47.254Z,93.68
2018-10-06T01:44:15.779Z,93.91
2018-10-06T01:46:44.504Z,93.82
2018-10-06T01:49:12.986Z,93.60
2018-10-06T01:51:41.843Z,93.52
2018-10-06T01:54:10.345Z,93.61
2018-10-06T01:56:39.180Z,93.52
2018-10-06T01:59:08.074Z,93.04
2018-10-06T02:01:36.585Z,92.98
2018-10-06T02:04:05.182Z,93.06
2018-10-06T02:06:33.712Z,93.00
2018-10-06T02:09:02.618Z,92.94
2018-10-06T02:11:31.138Z,92.67
2018-10-06T02:13:59.991Z,92.54
2018-10-06T02:16:28.553Z,92.70
2018-10-06T02:18:57.240Z,92.71
2018-10-06T02:21:25.782Z,92.90
2018-10-06T02:23:54.365Z,92.87
2018-10-06T02:26:23.010Z,92.78
2018-10-06T02:28:51.607Z,92.97
2018-10-06T02:31:20.387Z,92.91
2018-10-06T02:33:48.895Z,92.86
2018-10-06T02:36:17.651Z,92.46
2018-10-06T02:38:46.202Z,92.03
2018-10-06T02:41:14.847Z,92.20
2018-10-06T02:43:44.400Z,92.46
2018-10-06T02:46:12.955Z,92.35
2018-10-06T02:48:41.486Z,92.20
2018-10-06T02:51:10.042Z,92.21
2018-10-06T02:53:38.926Z,91.91
2018-10-06T02:56:07.679Z,92.16
2018-10-06T02:58:36.721Z,92.09
2018-10-06T03:01:05.210Z,91.98
2018-10-06T03:03:33.739Z,91.94
2018-10-06T03:06:02.294Z,91.86
2018-10-06T03:08:30.895Z,91.93
2018-10-06T03:10:59.444Z,91.97
2018-10-06T03:13:28.073Z,91.99
2018-10-06T03:15:57.082Z,91.90
2018-10-06T03:18:25.649Z,92.06
2018-10-06T03:20:54.734Z,92.13
2018-10-06T03:23:23.222Z,92.17
2018-10-06T03:25:51.846Z,92.09
2018-10-06T03:28:20.446Z,92.32
2018-10-06T03:30:49.239Z,92.26
2018-10-06T03:33:17.785Z,92.25
2018-10-06T03:35:46.417Z,92.29
2018-10-06T03:38:15.186Z,92.29
2018-10-06T03:40:43.689Z,92.02
2018-10-06T03:43:12.453Z,92.12
2018-10-06T03:45:40.942Z,92.34
2018-10-06T03:48:09.694Z,92.12
2018-10-06T03:50:38.366Z,92.29
2018-10-06T03:53:07.177Z,92.11
2018-10-06T03:55:35.826Z,92.31
2018-10-06T03:58:04.458Z,92.27
2018-10-06T04:00:33.299Z,92.40
2018-10-06T04:03:02.070Z,92.25
2018-10-06T04:05:31.145Z,92.33
2018-10-06T04:07:59.638Z,92.19
2018-10-06T04:10:28.345Z,92.21
2018-10-06T04:12:57.190Z,92.12
2018-10-06T04:15:25.806Z,92.07
2018-10-06T04:17:54.335Z,92.05
2018-10-06T04:20:22.921Z,92.11
2018-10-06T04:22:51.734Z,92.18
2018-10-06T04:25:21.438Z,92.08
2018-10-06T04:27:51.126Z,92.08
2018-10-06T04:30:19.709Z,92.40
2018-10-06T04:32:48.732Z,91.90
2018-10-06T04:35:17.269Z,91.97
2018-10-06T04:37:46.343Z,92.18
2018-10-06T04:40:14.902Z,92.04
2018-10-06T04:42:44.150Z,92.04
2018-10-06T04:45:12.902Z,92.08
2018-10-06T04:47:41.482Z,92.05
2018-10-06T04:50:10.251Z,92.01
2018-10-06T04:52:38.791Z,91.75
2018-10-06T04:55:07.819Z,91.27
2018-10-06T04:57:36.488Z,91.47
2018-10-06T05:00:05.328Z,91.09
2018-10-06T05:02:33.835Z,90.85
2018-10-06T05:05:02.421Z,90.77
2018-10-06T05:07:30.963Z,90.63
2018-10-06T05:09:59.446Z,90.76
2018-10-06T05:12:28.442Z,90.80
2018-10-06T05:14:57.067Z,90.80
2018-10-06T05:17:25.957Z,90.44
2018-10-06T05:19:54.518Z,89.87
2018-10-06T05:22:23.256Z,89.86
2018-10-06T05:24:51.994Z,89.94
2018-10-06T05:27:20.670Z,89.52
2018-10-06T05:29:49.283Z,89.61
2018-10-06T05:32:17.826Z,89.35
2018-10-06T05:34:46.738Z,89.73
2018-10-06T05:37:15.295Z,89.85
2018-10-06T05:39:44.367Z,89.64
2018-10-06T05:42:13.035Z,89.58
2018-10-06T05:44:41.574Z,89.91
2018-10-06T05:47:10.249Z,90.13
2018-10-06T05:49:38.822Z,90.58
2018-10-06T05:52:07.679Z,90.51
2018-10-06T05:54:36.220Z,90.30
2018-10-06T05:57:05.298Z,90.28
2018-10-06T05:59:33.825Z,90.79
2018-10-06T06:02:02.875Z,90.72
2018-10-06T06:04:31.534Z,90.84
2018-10-06T06:07:00.110Z,90.41
2018-10-06T06:09:28.690Z,90.71
2018-10-06T06:11:57.287Z,90.76
2018-10-06T06:14:25.973Z,90.98
2018-10-06T06:16:54.578Z,90.45
2018-10-06T06:19:24.242Z,90.92
2018-10-06T06:21:52.865Z,90.64
2018-10-06T06:24:22.528Z,90.93
2018-10-06T06:26:51.114Z,90.78
2018-10-06T06:29:19.891Z,90.99
2018-10-06T06:31:48.423Z,91.28
2018-10-06T06:34:17.026Z,90.88
2018-10-06T06:36:45.756Z,90.88
2018-10-06T06:39:14.250Z,91.06
2018-10-06T06:41:43.193Z,90.28
2018-10-06T06:44:11.849Z,90.30
2018-10-06T06:46:40.464Z,90.68
2018-10-06T06:49:08.987Z,90.70
2018-10-06T06:51:37.589Z,90.36
2018-10-06T06:54:06.137Z,90.62
2018-10-06T06:56:34.698Z,91.13
2018-10-06T06:59:03.310Z,91.13
2018-10-06T07:01:31.798Z,91.38
2018-10-06T07:04:00.417Z,90.86
2018-10-06T07:06:28.948Z,90.79
2018-10-06T07:08:57.552Z,90.56
2018-10-06T07:11:26.068Z,90.08
2018-10-06T07:13:54.547Z,88.77
2018-10-06T07:16:23.486Z,89.22
2018-10-06T07:18:52.026Z,89.62
2018-10-06T07:21:21.062Z,89.57
2018-10-06T07:23:49.615Z,89.91
2018-10-06T07:26:18.312Z,89.88
2018-10-06T07:28:46.963Z,89.79
2018-10-06T07:31:15.972Z,89.33
2018-10-06T07:33:44.574Z,89.12
2018-10-06T07:36:13.114Z,89.06
2018-10-06T07:38:41.730Z,88.80
2018-10-06T07:41:10.542Z,88.92
2018-10-06T07:43:39.744Z,88.60
2018-10-06T07:46:08.602Z,88.17
2018-10-06T07:48:37.580Z,88.40
2018-10-06T07:51:06.127Z,88.01
2018-10-06T07:53:34.770Z,87.41
2018-10-06T07:56:03.419Z,87.30
2018-10-06T07:58:32.046Z,86.36
2018-10-06T08:01:00.682Z,85.94
2018-10-06T08:03:29.245Z,85.29
2018-10-06T08:05:58.015Z,85.57
2018-10-06T08:08:26.538Z,84.73
2018-10-06T08:10:55.255Z,83.11
2018-10-06T08:13:23.808Z,83.83
2018-10-06T08:15:52.386Z,82.77
2018-10-06T08:18:20.969Z,83.00
2018-10-06T08:20:49.624Z,82.48
2018-10-06T08:23:18.514Z,82.52
2018-10-06T08:25:47.102Z,82.15
2018-10-06T08:28:15.980Z,79.15
2018-10-06T08:30:44.509Z,79.05
2018-10-06T08:33:13.360Z,80.50
2018-10-06T08:35:42.042Z,79.33
2018-10-06T08:38:10.570Z,78.71
2018-10-06T08:40:39.410Z,76.92
2018-10-06T08:43:07.921Z,78.78
2018-10-06T08:45:36.690Z,80.01
2018-10-06T08:48:05.250Z,78.47
2018-10-06T08:50:33.936Z,77.96
2018-10-06T08:53:02.632Z,77.50
2018-10-06T08:55:31.269Z,73.09
2018-10-06T08:57:59.805Z,74.08
2018-10-06T09:00:28.321Z,77.47
2018-10-06T09:02:57.160Z,77.12
2018-10-06T09:05:25.844Z,77.62
2018-10-06T09:07:54.650Z,72.72
2018-10-06T09:10:23.331Z,77.09
2018-10-06T09:12:51.859Z,75.47
2018-10-06T09:15:20.348Z,73.55
2018-10-06T09:17:49.079Z,76.34
2018-10-06T09:20:17.746Z,76.79
2018-10-06T09:22:47.096Z,75.57
2018-10-06T09:25:15.886Z,73.79
2018-10-06T09:27:44.486Z,74.23
2018-10-06T09:30:13.022Z,75.64
2018-10-06T09:32:41.610Z,75.69
2018-10-06T09:35:10.188Z,76.04
2018-10-06T09:37:38.826Z,76.63
2018-10-06T09:40:07.481Z,77.30
2018-10-06T09:42:36.289Z,76.83
2018-10-06T09:45:04.871Z,75.88
2018-10-06T09:47:33.881Z,76.78
2018-10-06T09:50:09.113Z,73.60
2018-10-06T09:52:37.824Z,75.93
2018-10-06T09:55:06.508Z,75.14
2018-10-06T09:57:35.138Z,74.11
2018-10-06T10:00:03.905Z,72.61
2018-10-06T10:02:37.479Z,75.40
2018-10-06T10:05:11.220Z,74.05
2018-10-06T10:07:40.355Z,76.32
2018-10-06T10:10:09.010Z,75.61
2018-10-06T10:12:37.823Z,75.94
2018-10-06T10:15:06.479Z,74.83
2018-10-06T10:17:35.135Z,72.61
2018-10-06T10:20:03.895Z,73.16
2018-10-06T10:22:32.550Z,73.18
2018-10-06T10:25:01.308Z,73.35
2018-10-06T10:27:29.862Z,71.72
2018-10-06T10:29:58.474Z,73.41
2018-10-06T10:32:27.140Z,73.67
2018-10-06T10:34:55.731Z,70.55
2018-10-06T10:37:24.531Z,72.25
2018-10-06T10:39:53.055Z,72.23
2018-10-06T10:42:22.700Z,72.92
2018-10-06T10:44:51.396Z,72.95
2018-10-06T10:47:20.795Z,71.44
2018-10-06T10:49:49.341Z,71.89
2018-10-06T10:52:17.907Z,72.49
2018-10-06T10:54:46.418Z,71.33
2018-10-06T10:57:15.055Z,72.52
2018-10-06T10:59:43.846Z,72.17
2018-10-06T11:02:12.377Z,72.62
2018-10-06T11:04:41.722Z,71.68
2018-10-06T11:07:10.260Z,73.07
2018-10-06T11:09:38.995Z,73.66
2018-10-06T11:12:08.406Z,72.45
2018-10-06T11:14:37.178Z,70.96
2018-10-06T11:17:05.823Z,71.85
2018-10-06T11:19:34.415Z,72.29
2018-10-06T11:22:02.926Z,70.31
2018-10-06T11:24:31.583Z,70.49
2018-10-06T11:27:00.359Z,68.14
2018-10-06T11:29:28.902Z,68.36
2018-10-06T11:31:57.662Z,65.97
2018-10-06T11:34:26.370Z,65.69
2018-10-06T11:36:55.055Z,68.81
2018-10-06T11:39:23.582Z,69.49
2018-10-06T11:41:52.111Z,69.89
2018-10-06T11:44:20.592Z,67.66
2018-10-06T11:46:49.106Z,67.02
2018-10-06T11:49:17.891Z,68.53
2018-10-06T11:51:46.426Z,69.57
2018-10-06T11:54:15.263Z,69.44
2018-10-06T11:56:43.843Z,68.54
2018-10-06T11:59:12.421Z,67.02
2018-10-06T12:01:40.938Z,68.98
2018-10-06T12:04:09.502Z,68.90
2018-10-06T12:06:38.290Z,68.72
2018-10-06T12:09:08.114Z,68.26
2018-10-06T12:11:37.222Z,65.57
2018-10-06T12:14:05.770Z,66.14
2018-10-06T12:16:34.377Z,66.85
2018-10-06T12:19:03.227Z,65.69
2018-10-06T12:21:31.958Z,65.41
2018-10-06T12:24:00.448Z,64.48
2018-10-06T12:26:29.054Z,66.26
2018-10-06T12:28:57.720Z,67.50
2018-10-06T12:31:26.340Z,66.26
2018-10-06T12:33:55.166Z,65.92
2018-10-06T12:36:23.658Z,68.73
2018-10-06T12:38:52.471Z,67.91
2018-10-06T12:41:21.034Z,65.32
2018-10-06T12:43:49.551Z,64.13
2018-10-06T12:46:18.331Z,68.38
2018-10-06T12:48:46.910Z,66.84
2018-10-06T12:51:15.619Z,67.24
2018-10-06T12:53:44.079Z,65.70
2018-10-06T12:56:12.874Z,64.20
2018-10-06T12:58:41.612Z,66.21
2018-10-06T13:01:10.354Z,67.14
2018-10-06T13:03:39.062Z,66.08
2018-10-06T13:06:07.659Z,66.17
2018-10-06T13:08:36.243Z,63.77
2018-10-06T13:11:04.815Z,64.35
2018-10-06T13:13:33.636Z,65.93
2018-10-06T13:16:02.141Z,63.29
2018-10-06T13:18:30.938Z,60.95
2018-10-06T13:20:59.514Z,62.47
2018-10-06T13:23:28.240Z,65.03
2018-10-06T13:25:56.942Z,64.00
2018-10-06T13:28:25.454Z,63.48
2018-10-06T13:30:53.946Z,65.59
2018-10-06T13:33:22.529Z,62.84
2018-10-06T13:35:51.322Z,65.38
2018-10-06T13:38:19.797Z,63.53
2018-10-06T13:40:48.434Z,65.24
2018-10-06T13:43:16.936Z,65.02
2018-10-06T13:45:45.430Z,62.48
2018-10-06T13:48:13.983Z,63.73
2018-10-06T13:50:42.568Z,65.79
2018-10-06T13:53:11.356Z,61.37
2018-10-06T13:55:39.946Z,61.51
2018-10-06T13:58:09.012Z,63.58
2018-10-06T14:00:37.518Z,63.43
2018-10-06T14:03:06.169Z,63.33
2018-10-06T14:05:34.883Z,64.30
2018-10-06T14:08:03.552Z,64.43
2018-10-06T14:10:33.043Z,65.77
2018-10-06T14:13:01.628Z,64.00
2018-10-06T14:15:30.340Z,62.20
2018-10-06T14:17:58.902Z,60.37
2018-10-06T14:20:27.836Z,64.74
2018-10-06T14:22:56.485Z,62.82
2018-10-06T14:25:25.083Z,62.30
2018-10-06T14:27:53.622Z,64.27
2018-10-06T14:30:22.147Z,62.42
2018-10-06T14:32:51.231Z,62.49
2018-10-06T14:35:19.755Z,65.29
2018-10-06T14:37:49.116Z,61.61
2018-10-06T14:40:17.682Z,62.45
2018-10-06T14:42:46.622Z,62.42
2018-10-06T14:45:15.110Z,64.01
2018-10-06T14:47:43.779Z,64.54
2018-10-06T14:50:12.260Z,65.99
2018-10-06T14:52:40.726Z,65.95
2018-10-06T14:55:09.646Z,66.01
2018-10-06T14:57:38.982Z,65.91
2018-10-06T15:00:08.130Z,65.77
2018-10-06T15:02:36.823Z,65.06
2018-10-06T15:05:05.963Z,63.71
2018-10-06T15:07:34.642Z,65.48
2018-10-06T15:10:03.496Z,68.12
2018-10-06T15:12:32.134Z,67.22
2018-10-06T15:15:00.864Z,66.98
2018-10-06T15:17:29.828Z,67.71
2018-10-06T15:19:58.382Z,69.22
2018-10-06T15:22:27.293Z,68.00
2018-10-06T15:24:55.988Z,68.00
2018-10-06T15:27:25.066Z,70.04
2018-10-06T15:29:53.606Z,70.21
2018-10-06T15:32:22.216Z,70.17
2018-10-06T15:34:50.747Z,70.40
2018-10-06T15:37:19.274Z,70.77
2018-10-06T15:39:48.145Z,69.60
2018-10-06T15:42:16.666Z,71.41
2018-10-06T15:44:46.474Z,71.91
2018-10-06T15:47:15.086Z,71.93
2018-10-06T15:49:43.830Z,71.81
2018-10-06T15:52:12.382Z,72.11
2018-10-06T15:54:40.923Z,71.65
2018-10-06T15:57:09.608Z,72.15
2018-10-06T15:59:38.240Z,72.03
2018-10-06T16:02:07.078Z,72.62
2018-10-06T16:04:35.662Z,72.27
2018-10-06T16:07:04.386Z,70.56
2018-10-06T16:09:33.139Z,72.06
2018-10-06T16:12:01.745Z,70.71
2018-10-06T16:14:30.242Z,71.34
2018-10-06T16:16:58.758Z,71.89
2018-10-06T16:19:27.405Z,71.27
2018-10-06T16:21:55.923Z,71.41
2018-10-06T16:24:24.657Z,72.61
2018-10-06T16:26:53.174Z,73.26
2018-10-06T16:29:21.948Z,73.23
2018-10-06T16:31:50.692Z,73.41
2018-10-06T16:34:19.187Z,73.77
2018-10-06T16:36:47.708Z,74.28
2018-10-06T16:39:16.270Z,74.58
2018-10-06T16:41:44.975Z,74.92
2018-10-06T16:44:13.552Z,75.13
2018-10-06T16:46:42.234Z,75.40
2018-10-06T16:49:10.848Z,75.78
2018-10-06T16:51:39.611Z,76.32
2018-10-06T16:54:08.158Z,76.71
2018-10-06T16:56:36.698Z,76.63
2018-10-06T16:59:05.455Z,76.69
2018-10-06T17:01:34.176Z,76.78
2018-10-06T17:04:03.607Z,77.22
2018-10-06T17:06:32.297Z,77.58
2018-10-06T17:09:00.894Z,77.81
2018-10-06T17:11:29.378Z,77.77
2018-10-06T17:13:57.899Z,78.13
2018-10-06T17:16:26.965Z,78.48
2018-10-06T17:18:55.628Z,78.71
2018-10-06T17:21:24.375Z,78.78
2018-10-06T17:23:53.014Z,79.26
2018-10-06T17:26:23.007Z,79.30
2018-10-06T17:28:51.488Z,79.61
2018-10-06T17:31:20.354Z,79.87
2018-10-06T17:33:48.856Z,80.00
2018-10-06T17:36:17.390Z,79.99
2018-10-06T17:38:46.014Z,80.02
2018-10-06T17:41:14.498Z,80.07
2018-10-06T17:43:43.290Z,80.35
2018-10-06T17:46:11.939Z,80.67
2018-10-06T17:48:40.922Z,80.60
2018-10-06T17:51:09.648Z,80.79
2018-10-06T17:53:38.454Z,80.82
2018-10-06T17:56:07.117Z,80.96
2018-10-06T17:58:35.763Z,80.85
2018-10-06T18:01:04.594Z,80.76
2018-10-06T18:03:33.249Z,81.12
2018-10-06T18:06:02.922Z,81.58
2018-10-06T18:08:31.761Z,81.43
2018-10-06T18:11:00.664Z,80.79
2018-10-06T18:13:29.187Z,79.87
2018-10-06T18:15:58.241Z,76.83
2018-10-06T18:18:26.733Z,74.29
2018-10-06T18:20:55.255Z,73.60
2018-10-06T18:23:23.823Z,72.58
2018-10-06T18:25:52.383Z,71.94
2018-10-06T18:28:21.162Z,72.21
2018-10-06T18:30:49.755Z,71.42
2018-10-06T18:33:18.531Z,67.57
2018-10-06T18:35:47.022Z,61.68
2018-10-06T18:38:15.662Z,66.32
2018-10-06T18:40:44.274Z,62.51
2018-10-06T18:43:12.798Z,66.25
2018-10-06T18:45:42.035Z,68.75
2018-10-06T18:48:10.574Z,69.19
2018-10-06T18:50:39.437Z,67.20
2018-10-06T18:53:08.018Z,69.61
2018-10-06T18:55:36.906Z,70.23
2018-10-06T18:58:05.385Z,66.06
2018-10-06T19:00:34.039Z,69.70
2018-10-06T19:03:03.085Z,71.69
2018-10-06T19:05:31.701Z,73.41
2018-10-06T19:08:00.423Z,74.85
2018-10-06T19:10:28.904Z,77.20
2018-10-06T19:12:58.458Z,77.97
2018-10-06T19:15:26.993Z,78.12
2018-10-06T19:17:55.758Z,78.42
2018-10-06T19:20:24.246Z,79.08
2018-10-06T19:22:52.924Z,78.45
2018-10-06T19:25:21.462Z,79.18
2018-10-06T19:27:49.938Z,79.93
2018-10-06T19:30:18.698Z,80.77
2018-10-06T19:32:47.186Z,81.50
2018-10-06T19:35:15.891Z,82.34
2018-10-06T19:37:44.484Z,83.09
2018-10-06T19:40:13.500Z,82.71
2018-10-06T19:42:42.122Z,83.73
2018-10-06T19:45:10.727Z,84.14
2018-10-06T19:47:39.358Z,84.30
2018-10-06T19:50:07.901Z,85.48
2018-10-06T19:52:36.526Z,85.14
2018-10-06T19:55:05.054Z,84.95
2018-10-06T19:57:34.006Z,85.02
2018-10-06T20:00:02.844Z,85.33
2018-10-06T20:02:31.509Z,85.36
2018-10-06T20:05:00.070Z,84.88
2018-10-06T20:07:28.871Z,86.07
2018-10-06T20:09:57.392Z,85.13
2018-10-06T20:12:26.039Z,85.59
2018-10-06T20:14:54.722Z,85.85
2018-10-06T20:17:23.201Z,85.63
2018-10-06T20:19:52.235Z,86.22
2018-10-06T20:22:20.791Z,86.96
2018-10-06T20:24:49.533Z,86.47
2018-10-06T20:27:18.050Z,87.29
2018-10-06T20:29:46.625Z,86.77
2018-10-06T20:32:15.152Z,86.58
2018-10-06T20:34:43.762Z,87.06
2018-10-06T20:39:38.611Z,87.30
2018-10-06T20:42:07.324Z,87.33
2018-10-06T20:44:35.921Z,87.54
2018-10-06T20:47:04.559Z,87.31
2018-10-06T20:49:33.261Z,87.30
2018-10-06T20:52:01.867Z,87.31
2018-10-06T20:54:31.392Z,87.89
2018-10-06T20:56:59.986Z,87.38
2018-10-06T20:59:28.636Z,87.77
2018-10-06T21:01:57.301Z,87.66
2018-10-06T21:04:25.851Z,87.63
2018-10-06T21:06:54.450Z,88.25
2018-10-06T21:09:22.974Z,88.59
2018-10-06T21:14:26.586Z,88.39
2018-10-06T21:16:55.128Z,88.68
2018-10-06T21:19:23.766Z,88.75
2018-10-06T21:21:52.418Z,89.22
2018-10-06T21:24:21.231Z,88.84
2018-10-06T21:29:18.062Z,89.30
2018-10-06T21:31:46.867Z,89.20
2018-10-06T21:34:15.462Z,89.38
2018-10-06T21:36:44.170Z,89.13
2018-10-06T21:39:12.796Z,89.14
2018-10-06T21:41:41.318Z,89.29
2018-10-06T21:44:09.963Z,88.95
2018-10-06T21:46:38.582Z,88.83
2018-10-06T21:49:07.626Z,89.18
2018-10-06T21:51:36.159Z,88.84
2018-10-06T21:54:05.031Z,88.71
2018-10-06T21:56:33.647Z,88.25
2018-10-06T21:59:02.226Z,88.61
2018-10-06T22:01:30.748Z,88.00
2018-10-06T22:03:59.270Z,88.07
2018-10-06T22:06:27.858Z,87.62
2018-10-06T22:08:56.397Z,87.93
2018-10-06T22:11:25.190Z,88.13
2018-10-06T22:13:53.703Z,88.10
2018-10-06T22:16:22.514Z,87.97
2018-10-06T22:18:51.029Z,87.61
2018-10-06T22:21:19.716Z,87.96
2018-10-06T22:23:48.404Z,88.29
2018-10-06T22:26:16.987Z,88.29
2018-10-06T22:28:45.675Z,87.85
2018-10-06T22:31:14.194Z,87.86
2018-10-06T22:33:43.012Z,87.66
2018-10-06T22:36:11.570Z,87.81
2018-10-06T22:38:40.100Z,87.57
2018-10-06T22:41:08.729Z,87.88
2018-10-06T22:43:37.286Z,88.23
2018-10-06T22:46:06.979Z,88.09
2018-10-06T22:48:35.474Z,88.74
2018-10-06T22:51:04.399Z,87.80
2018-10-06T22:53:32.938Z,88.30
2018-10-06T22:56:01.674Z,88.42
2018-10-06T22:58:30.187Z,87.92
2018-10-06T23:00:58.744Z,88.77
2018-10-06T23:03:27.303Z,89.00
2018-10-06T23:05:55.830Z,89.07
2018-10-06T23:08:24.658Z,89.27
2018-10-06T23:10:53.158Z,88.80
2018-10-06T23:13:21.878Z,89.20
2018-10-06T23:15:50.374Z,89.22
2018-10-06T23:18:18.942Z,88.91
2018-10-06T23:20:47.552Z,88.92
2018-10-06T23:23:16.063Z,89.18
2018-10-06T23:25:44.870Z,88.99
2018-10-06T23:28:13.514Z,89.25
2018-10-06T23:30:42.270Z,89.75
2018-10-06T23:33:10.826Z,89.31
2018-10-06T23:35:39.397Z,89.60
2018-10-06T23:38:08.039Z,88.68
2018-10-06T23:40:36.521Z,87.72
2018-10-06T23:43:05.283Z,87.78
2018-10-06T23:45:33.794Z,87.82
2018-10-06T23:48:02.399Z,87.75
2018-10-06T23:50:30.960Z,87.59
2018-10-06T23:52:59.571Z,88.00
2018-10-06T23:55:28.142Z,88.09
2018-10-06T23:57:56.759Z,87.53
